»·PEaware :: AAL2345 KDFW-KMIA

AAL2345 :: KDFW-KMIA

FLIGHT INFORMATION

Flight Status: Arrived
Operator:
American Airlines
More flights by this operator :: More flights under this callsign
Pilot: Drew Leevy (13237)
Aircraft: BOEING 767-300
(B763)
More flights by this aircraft type
Origin: KDFW Dallas-Ft Worth Intl
United States
Destination: KMIA Miami Intl
United States
More flights between these airports :: More routes between these airports
Route: DARTZ7 BILEE HRV Q105 BLVNS Q102 BAGGS SSCOT3
File this flight plan on PilotEdge
Remarks:
Altitude:
(Current/Filed)
37,000ft
Speed:
(Current/Filed)
440kts
Departed: 21-Apr-17 11:36 PM
Arrived: 22-Apr-17 01:54 AM
Distance/Time
Traveled:
973nm/2:18
Distance/Time
To Go:
Arrived

Flight Plot

Page will automatically refresh every two minutes.

Flight plan parsing failed; only flown route is shown


Map Options




Map Legend


Flown Route
Filed Route
Departure Airport
Arrival Airport
Navaid (VOR, NDB)
Fix

Horizontal Profiles

Position Reports

Time Latitude Longitude Heading Altitude Ground
Speed
21-Apr-17 23:32 32.890536 -97.033262 180 617ft 24kts
21-Apr-17 23:33 32.886020 -97.034138 266 617ft 9kts
21-Apr-17 23:34 32.886079 -97.041216 271 617ft 35kts
21-Apr-17 23:35 32.882842 -97.046625 188 617ft 18kts
21-Apr-17 23:36 32.879095 -97.048355 266 617ft 13kts
21-Apr-17 23:37 32.879510 -97.050916 0 617ft 0kts
21-Apr-17 23:38 32.910219 -97.050959 357 1790ft 198kts
21-Apr-17 23:39 32.975921 -97.067206 336 5653ft 294kts
21-Apr-17 23:40 33.016019 -97.143924 261 11016ft 277kts
21-Apr-17 23:41 32.995481 -97.240651 244 12984ft 358kts
21-Apr-17 23:42 32.905460 -97.299931 182 16277ft 412kts
21-Apr-17 23:43 32.790640 -97.278089 161 19467ft 438kts
21-Apr-17 23:44 32.689462 -97.196973 141 22426ft 459kts
21-Apr-17 23:45 32.588957 -97.100715 141 25063ft 477kts
21-Apr-17 23:46 32.484612 -97.000741 141 27372ft 495kts
21-Apr-17 23:47 32.376489 -96.897459 141 29495ft 511kts
21-Apr-17 23:48 32.279268 -96.777975 119 32015ft 511kts
21-Apr-17 23:49 32.225366 -96.623677 111 34337ft 507kts
21-Apr-17 23:50 32.174904 -96.469118 112 36146ft 507kts
21-Apr-17 23:51 32.124514 -96.315015 113 36874ft 509kts
21-Apr-17 23:52 32.073815 -96.160660 113 36885ft 506kts
21-Apr-17 23:53 32.022978 -96.006598 113 36885ft 506kts
21-Apr-17 23:54 31.972105 -95.853153 113 36914ft 506kts
21-Apr-17 23:55 31.920821 -95.699202 113 36915ft 506kts
21-Apr-17 23:56 31.870532 -95.548958 113 36917ft 506kts
21-Apr-17 23:57 31.818903 -95.395415 113 36919ft 506kts
21-Apr-17 23:58 31.767753 -95.243990 114 36911ft 506kts
21-Apr-17 23:59 31.715825 -95.090987 114 36912ft 506kts
22-Apr-17 00:00 31.663622 -94.937877 113 36888ft 505kts
22-Apr-17 00:01 31.611341 -94.785249 113 36888ft 505kts
22-Apr-17 00:01 31.567641 -94.658206 113 36889ft 506kts
22-Apr-17 00:03 31.506310 -94.480717 113 36891ft 506kts
22-Apr-17 00:04 31.454453 -94.331370 114 36913ft 505kts
22-Apr-17 00:05 31.401318 -94.179042 114 36911ft 505kts
22-Apr-17 00:05 31.357075 -94.052724 114 36912ft 505kts
22-Apr-17 00:07 31.294971 -93.876199 114 36914ft 505kts
22-Apr-17 00:07 31.250246 -93.749635 114 36915ft 505kts
22-Apr-17 00:08 31.196635 -93.598545 114 36916ft 505kts
22-Apr-17 00:10 31.133715 -93.422071 114 36918ft 505kts
22-Apr-17 00:10 31.089924 -93.299783 115 36936ft 505kts
22-Apr-17 00:12 31.026939 -93.124664 115 36911ft 505kts
22-Apr-17 00:12 30.981727 -92.999489 115 36888ft 503kts
22-Apr-17 00:14 30.918454 -92.825077 115 36888ft 503kts
22-Apr-17 00:14 30.874597 -92.704697 115 36916ft 502kts
22-Apr-17 00:15 30.819925 -92.555219 115 36917ft 502kts
22-Apr-17 00:16 30.765232 -92.406311 115 36918ft 502kts
22-Apr-17 00:17 30.715117 -92.270412 115 36938ft 502kts
22-Apr-17 00:18 30.660131 -92.121913 115 36939ft 502kts
22-Apr-17 00:19 30.605100 -91.973917 115 36946ft 501kts
22-Apr-17 00:20 30.549956 -91.826234 115 36941ft 501kts
22-Apr-17 00:21 30.494631 -91.678685 115 36970ft 502kts
22-Apr-17 00:22 30.438937 -91.530755 115 36971ft 501kts
22-Apr-17 00:23 30.383195 -91.383314 115 36972ft 501kts
22-Apr-17 00:24 30.327960 -91.237813 116 36964ft 500kts
22-Apr-17 00:25 30.271929 -91.090806 116 36966ft 501kts
22-Apr-17 00:26 30.215947 -90.944519 116 37023ft 500kts
22-Apr-17 00:27 30.159397 -90.797351 116 37278ft 501kts
22-Apr-17 00:28 30.102926 -90.650979 116 37483ft 502kts
22-Apr-17 00:29 30.046064 -90.504182 116 37356ft 502kts
22-Apr-17 00:30 29.989370 -90.358405 116 37113ft 500kts
22-Apr-17 00:31 29.933034 -90.214133 116 36965ft 498kts
22-Apr-17 00:32 29.876093 -90.068869 116 36967ft 499kts
22-Apr-17 00:33 29.801072 -89.937694 132 36971ft 494kts
22-Apr-17 00:34 29.713559 -89.816752 133 36969ft 492kts
22-Apr-17 00:35 29.625460 -89.696914 133 36969ft 492kts
22-Apr-17 00:36 29.537554 -89.577811 133 36998ft 492kts
22-Apr-17 00:37 29.448982 -89.458166 133 36998ft 492kts
22-Apr-17 00:38 29.361347 -89.340128 133 36996ft 492kts
22-Apr-17 00:39 29.272792 -89.221206 133 36992ft 492kts
22-Apr-17 00:40 29.184282 -89.102686 133 36993ft 491kts
22-Apr-17 00:41 29.095743 -88.984478 133 36994ft 491kts
22-Apr-17 00:42 29.006989 -88.866311 133 36994ft 491kts
22-Apr-17 00:43 28.918389 -88.748701 133 36995ft 491kts
22-Apr-17 00:44 28.829854 -88.630449 133 36997ft 491kts
22-Apr-17 00:45 28.741924 -88.512620 133 36970ft 491kts
22-Apr-17 00:46 28.653626 -88.394642 133 36972ft 491kts
22-Apr-17 00:47 28.566395 -88.278412 133 36965ft 490kts
22-Apr-17 00:48 28.478066 -88.161056 133 36966ft 490kts
22-Apr-17 00:49 28.391954 -88.041874 123 36960ft 493kts
22-Apr-17 00:50 28.342684 -87.895972 110 36969ft 498kts
22-Apr-17 00:51 28.299394 -87.746969 109 36969ft 498kts
22-Apr-17 00:52 28.256243 -87.598512 109 36970ft 498kts
22-Apr-17 00:53 28.212841 -87.449823 109 36971ft 497kts
22-Apr-17 00:54 28.169864 -87.303252 110 36963ft 497kts
22-Apr-17 00:55 28.126231 -87.155114 110 36965ft 497kts
22-Apr-17 00:56 28.082535 -87.007393 110 36966ft 493kts
22-Apr-17 00:57 28.038820 -86.860281 110 36967ft 494kts
22-Apr-17 00:58 27.995429 -86.713233 110 36968ft 494kts
22-Apr-17 00:59 27.952879 -86.566198 110 36969ft 494kts
22-Apr-17 01:00 27.910028 -86.418823 110 36972ft 494kts
22-Apr-17 01:01 27.867175 -86.272106 110 36965ft 493kts
22-Apr-17 01:02 27.824127 -86.125367 110 36967ft 493kts
22-Apr-17 01:03 27.780886 -85.978611 110 36968ft 493kts
22-Apr-17 01:04 27.737556 -85.832198 110 36969ft 493kts
22-Apr-17 01:05 27.694112 -85.686033 110 36969ft 493kts
22-Apr-17 01:06 27.650333 -85.539381 110 36970ft 493kts
22-Apr-17 01:07 27.606618 -85.393564 110 36971ft 493kts
22-Apr-17 01:08 27.574389 -85.243311 102 36967ft 495kts
22-Apr-17 01:09 27.547931 -85.092096 102 36994ft 495kts
22-Apr-17 01:10 27.521301 -84.940441 102 36994ft 494kts
22-Apr-17 01:11 27.494498 -84.788787 102 36995ft 494kts
22-Apr-17 01:12 27.467528 -84.637276 102 36996ft 494kts
22-Apr-17 01:13 27.440424 -84.485991 102 36999ft 495kts
22-Apr-17 01:14 27.413430 -84.336303 103 36994ft 499kts
22-Apr-17 01:15 27.385799 -84.184073 103 36993ft 498kts
22-Apr-17 01:16 27.357992 -84.031846 103 36993ft 498kts
22-Apr-17 01:17 27.330147 -83.880388 103 36995ft 498kts
22-Apr-17 01:18 27.302013 -83.728327 103 36996ft 497kts
22-Apr-17 01:19 27.273686 -83.576187 103 36997ft 497kts
22-Apr-17 01:20 27.245281 -83.424593 103 36998ft 497kts
22-Apr-17 01:21 27.216956 -83.274368 103 36991ft 497kts
22-Apr-17 01:22 27.188240 -83.123007 103 36993ft 497kts
22-Apr-17 01:23 27.126596 -82.990047 136 37008ft 485kts
22-Apr-17 01:24 27.030914 -82.884044 138 36993ft 484kts
22-Apr-17 01:25 26.935363 -82.778901 138 36995ft 485kts
22-Apr-17 01:26 26.839612 -82.673536 138 36997ft 484kts
22-Apr-17 01:28 26.743904 -82.568183 138 36997ft 484kts
22-Apr-17 01:29 26.665085 -82.446645 117 37005ft 492kts
22-Apr-17 01:30 26.620342 -82.332674 115 36933ft 470kts
22-Apr-17 01:31 26.564559 -82.217190 135 35920ft 469kts
22-Apr-17 01:32 26.472063 -82.115306 139 32847ft 450kts
22-Apr-17 01:33 26.380395 -82.017882 138 30085ft 467kts
22-Apr-17 01:34 26.287415 -81.919420 138 27764ft 441kts
22-Apr-17 01:35 26.202272 -81.829560 137 21967ft 411kts
22-Apr-17 01:36 26.140486 -81.731303 114 17913ft 388kts
22-Apr-17 01:37 26.102680 -81.619328 111 16646ft 382kts
22-Apr-17 01:38 26.067254 -81.509627 111 15189ft 376kts
22-Apr-17 01:39 26.032639 -81.402339 111 13635ft 364kts
22-Apr-17 01:40 25.998975 -81.298306 111 12067ft 356kts
22-Apr-17 01:41 25.965936 -81.196584 111 10555ft 348kts
22-Apr-17 01:42 25.934592 -81.100474 112 10157ft 308kts
22-Apr-17 01:43 25.907214 -81.016774 112 9897ft 274kts
22-Apr-17 01:44 25.881259 -80.938481 113 8921ft 270kts
22-Apr-17 01:45 25.855171 -80.861606 112 8001ft 264kts
22-Apr-17 01:46 25.840603 -80.783119 101 6102ft 259kts
22-Apr-17 01:47 25.829640 -80.709954 101 5081ft 230kts
22-Apr-17 01:48 25.819273 -80.640971 101 4295ft 222kts
22-Apr-17 01:49 25.809376 -80.575159 102 3599ft 209kts
22-Apr-17 01:50 25.800385 -80.515630 101 3319ft 179kts
22-Apr-17 01:51 25.793902 -80.464984 90 2839ft 164kts
22-Apr-17 01:52 25.795923 -80.417317 88 2037ft 144kts
22-Apr-17 01:53 25.797656 -80.375690 88 1343ft 136kts
22-Apr-17 01:54 25.799314 -80.334430 89 622ft 134kts
22-Apr-17 01:55 25.801046 -80.293062 89 19ft 126kts
22-Apr-17 01:56 25.801077 -80.275177 135 17ft 12kts
22-Apr-17 01:57 25.799163 -80.277109 191 17ft 12kts
22-Apr-17 01:58 25.797896 -80.277198 177 17ft 0kts
22-Apr-17 01:59 25.797896 -80.277198 177 17ft 0kts
22-Apr-17 02:00 25.797896 -80.277198 177 17ft 0kts
22-Apr-17 02:01 25.797896 -80.277198 177 17ft 0kts
22-Apr-17 02:02 25.797896 -80.277198 177 17ft 0kts
22-Apr-17 02:03 25.797896 -80.277198 177 17ft 0kts
22-Apr-17 02:04 25.797896 -80.277198 177 17ft 0kts
22-Apr-17 02:05 25.797896 -80.277198 177 17ft 0kts
22-Apr-17 02:06 25.797896 -80.277198 177 17ft 0kts
22-Apr-17 02:07 25.797896 -80.277198 177 17ft 0kts
22-Apr-17 02:08 25.797896 -80.277198 177 17ft 0kts
22-Apr-17 02:09 25.797896 -80.277198 177 17ft 0kts
22-Apr-17 02:10 25.797896 -80.277198 177 17ft 0kts

Navigation Log

Ident Type
Flight plan parsing failed, navigation log unavailable